createdAt,value
2022-12-11T00:00:52.821Z,97719.09
2022-12-11T00:03:20.043Z,97720.72
2022-12-11T00:05:47.141Z,97716.22
2022-12-11T00:08:15.447Z,97728.34
2022-12-11T00:10:49.699Z,97729.03
2022-12-11T00:13:16.731Z,97726.44
2022-12-11T00:15:43.911Z,97725.69
2022-12-11T00:18:14.925Z,97722.94
2022-12-11T00:20:42.257Z,97722.44
2022-12-11T00:23:09.236Z,97712.63
2022-12-11T00:25:40.532Z,97717.13
2022-12-11T00:28:07.456Z,97717.34
2022-12-11T00:30:34.446Z,97714.94
2022-12-11T00:33:01.485Z,97710.94
2022-12-11T00:35:28.459Z,97711.72
2022-12-11T00:37:55.438Z,97703.16
2022-12-11T00:40:23.256Z,97712.75
2022-12-11T00:42:50.224Z,97711.09
2022-12-11T00:45:17.257Z,97713.53
2022-12-11T00:47:44.205Z,97711.09
2022-12-11T00:50:12.258Z,97702.03
2022-12-11T00:52:40.672Z,97701.66
2022-12-11T00:55:08.184Z,97703.63
2022-12-11T00:57:35.681Z,97701.34
2022-12-11T01:00:06.944Z,97708.34
2022-12-11T01:02:34.483Z,97708.09
2022-12-11T01:05:01.553Z,97710.59
2022-12-11T01:07:29.058Z,97715.22
2022-12-11T01:10:14.544Z,97720.56
2022-12-11T01:12:41.525Z,97726.09
2022-12-11T01:15:09.412Z,97729.81
2022-12-11T01:17:36.586Z,97734.38
2022-12-11T01:20:05.400Z,97740.63
2022-12-11T01:22:32.392Z,97745.25
2022-12-11T01:24:59.348Z,97743.28
2022-12-11T01:27:26.523Z,97740.97
2022-12-11T01:29:53.521Z,97742.69
2022-12-11T01:32:20.508Z,97751.13
2022-12-11T01:34:47.466Z,97751.06
2022-12-11T01:37:14.539Z,97754.66
2022-12-11T01:39:41.555Z,97755.56
2022-12-11T01:42:18.840Z,97751.78
2022-12-11T01:44:45.766Z,97755.28
2022-12-11T01:47:13.081Z,97754.59
2022-12-11T01:49:41.687Z,97756.06
2022-12-11T01:52:16.571Z,97758.16
2022-12-11T01:54:44.319Z,97757.69
2022-12-11T01:57:12.761Z,97765.31
2022-12-11T01:59:44.892Z,97761.09
2022-12-11T02:02:27.094Z,97771.34
2022-12-11T02:04:54.173Z,97767.72
2022-12-11T02:07:21.390Z,97780.59
2022-12-11T02:09:50.035Z,97774.44
2022-12-11T02:13:07.117Z,97777.19
2022-12-11T02:16:01.352Z,97782.47
2022-12-11T02:18:56.076Z,97783.72
2022-12-11T02:21:51.206Z,97785.72
2022-12-11T02:24:41.168Z,97784.16
2022-12-11T02:27:23.361Z,97782.28
2022-12-11T02:30:13.889Z,97779.94
2022-12-11T02:32:55.465Z,97786.91
2022-12-11T02:35:37.140Z,97785.16
2022-12-11T02:38:28.994Z,97785.69
2022-12-11T02:40:57.635Z,97785.97
2022-12-11T02:43:26.121Z,97775.38
2022-12-11T02:45:54.403Z,97776.63
2022-12-11T02:48:23.175Z,97770.97
2022-12-11T02:50:55.627Z,97767.38
2022-12-11T02:53:26.455Z,97766.81
2022-12-11T02:56:06.045Z,97777.50
2022-12-11T02:58:34.597Z,97771.25
2022-12-11T03:01:01.731Z,97777.22
2022-12-11T03:03:30.744Z,97772.19
2022-12-11T03:05:57.806Z,97778.75
2022-12-11T03:08:24.880Z,97775.41
2022-12-11T03:10:51.890Z,97774.03
2022-12-11T03:13:23.722Z,97771.69
2022-12-11T03:16:22.688Z,97766.59
2022-12-11T03:19:12.982Z,97761.94
2022-12-11T03:21:53.970Z,97757.88
2022-12-11T03:24:31.989Z,97760.66
2022-12-11T03:27:15.268Z,97763.66
2022-12-11T03:29:56.225Z,97758.50
2022-12-11T03:32:29.141Z,97759.25
2022-12-11T03:35:23.503Z,97761.50
2022-12-11T03:37:52.405Z,97761.88
2022-12-11T03:40:22.762Z,97755.53
2022-12-11T03:42:53.674Z,97758.25
2022-12-11T03:45:22.435Z,97757.63
2022-12-11T03:47:51.055Z,97759.25
2022-12-11T03:50:20.407Z,97758.56
2022-12-11T03:52:48.290Z,97769.88
2022-12-11T03:55:17.750Z,97766.81
2022-12-11T03:57:45.218Z,97762.59
2022-12-11T04:00:17.404Z,97769.69
2022-12-11T04:02:45.208Z,97763.84
2022-12-11T04:05:12.763Z,97758.25
2022-12-11T04:07:39.967Z,97767.13
2022-12-11T04:10:07.316Z,97758.31
2022-12-11T04:12:34.355Z,97755.03
2022-12-11T04:15:04.195Z,97743.69
2022-12-11T04:17:55.414Z,97748.63
2022-12-11T04:20:41.448Z,97742.00
2022-12-11T04:23:33.501Z,97744.22
2022-12-11T04:26:11.698Z,97740.63
2022-12-11T04:28:40.525Z,97740.34
2022-12-11T04:31:11.923Z,97737.75
2022-12-11T04:33:39.007Z,97735.50
2022-12-11T04:36:06.717Z,97735.34
2022-12-11T04:38:33.737Z,97735.25
2022-12-11T04:41:06.747Z,97746.09
2022-12-11T04:43:33.913Z,97741.75
2022-12-11T04:46:07.301Z,97730.59
2022-12-11T04:48:35.285Z,97733.59
2022-12-11T04:51:02.497Z,97730.22
2022-12-11T04:53:29.586Z,97731.09
2022-12-11T04:55:56.601Z,97728.75
2022-12-11T04:58:25.386Z,97718.69
2022-12-11T05:00:52.989Z,97725.41
2022-12-11T05:03:20.781Z,97717.69
2022-12-11T05:05:53.105Z,97723.16
2022-12-11T05:08:21.184Z,97722.78
2022-12-11T05:11:04.168Z,97729.50
2022-12-11T05:13:31.754Z,97725.91
2022-12-11T05:15:59.435Z,97730.91
2022-12-11T05:18:26.540Z,97720.91
2022-12-11T05:21:08.971Z,97725.97
2022-12-11T05:23:36.135Z,97722.09
2022-12-11T05:26:08.135Z,97723.56
2022-12-11T05:28:37.796Z,97731.56
2022-12-11T05:31:10.705Z,97734.22
2022-12-11T05:33:37.802Z,97729.75
2022-12-11T05:36:06.795Z,97736.19
2022-12-11T05:38:34.079Z,97722.09
2022-12-11T05:41:04.741Z,97723.34
2022-12-11T05:43:33.721Z,97727.28
2022-12-11T05:46:18.190Z,97720.53
2022-12-11T05:48:48.238Z,97725.63
2022-12-11T05:51:16.656Z,97717.72
2022-12-11T05:53:46.405Z,97722.06
2022-12-11T05:56:29.218Z,97710.78
2022-12-11T05:58:57.750Z,97710.78
2022-12-11T06:01:40.752Z,97701.34
2022-12-11T06:04:10.643Z,97696.69
2022-12-11T06:06:40.452Z,97696.56
2022-12-11T06:09:07.721Z,97692.41
2022-12-11T06:11:35.681Z,97690.84
2022-12-11T06:14:04.161Z,97690.50
2022-12-11T06:16:32.173Z,97692.72
2022-12-11T06:18:59.401Z,97683.69
2022-12-11T06:21:32.591Z,97690.44
2022-12-11T06:24:03.197Z,97692.06
2022-12-11T06:26:32.026Z,97686.47
2022-12-11T06:28:59.047Z,97687.25
2022-12-11T06:31:26.407Z,97686.84
2022-12-11T06:33:54.319Z,97688.47
2022-12-11T06:36:25.245Z,97684.88
2022-12-11T06:38:53.084Z,97688.91
2022-12-11T06:41:20.140Z,97694.03
2022-12-11T06:43:47.366Z,97686.47
2022-12-11T06:46:18.028Z,97694.81
2022-12-11T06:48:45.822Z,97690.25
2022-12-11T06:51:19.582Z,97691.66
2022-12-11T06:53:55.239Z,97690.72
2022-12-11T06:56:23.955Z,97688.41
2022-12-11T06:58:52.063Z,97694.56
2022-12-11T07:01:25.495Z,97694.28
2022-12-11T07:03:57.735Z,97705.06
2022-12-11T07:06:27.779Z,97702.78
2022-12-11T07:08:55.208Z,97701.19
2022-12-11T07:11:23.004Z,97707.97
2022-12-11T07:13:50.313Z,97709.75
2022-12-11T07:16:18.734Z,97709.47
2022-12-11T07:18:51.253Z,97716.00
2022-12-11T07:21:20.674Z,97716.19
2022-12-11T07:23:49.194Z,97721.34
2022-12-11T07:26:20.677Z,97721.50
2022-12-11T07:28:47.919Z,97716.41
2022-12-11T07:31:19.443Z,97721.50
2022-12-11T07:33:47.316Z,97715.63
2022-12-11T07:36:15.595Z,97720.53
2022-12-11T07:38:42.710Z,97717.34
2022-12-11T07:41:14.038Z,97708.97
2022-12-11T07:43:42.215Z,97712.19
2022-12-11T07:46:24.855Z,97710.16
2022-12-11T07:48:52.281Z,97706.81
2022-12-11T07:51:27.860Z,97707.97
2022-12-11T07:54:00.534Z,97703.09
2022-12-11T07:56:28.910Z,97703.72
2022-12-11T07:58:56.272Z,97704.09
2022-12-11T08:01:26.451Z,97710.94
2022-12-11T08:03:54.753Z,97719.41
2022-12-11T08:06:28.434Z,97720.28
2022-12-11T08:08:56.938Z,97718.91
2022-12-11T08:11:24.502Z,97720.75
2022-12-11T08:13:51.515Z,97716.25
2022-12-11T08:16:19.648Z,97711.00
2022-12-11T08:18:47.741Z,97715.38
2022-12-11T08:21:27.810Z,97716.34
2022-12-11T08:23:55.485Z,97705.56
2022-12-11T08:26:29.205Z,97715.56
2022-12-11T08:28:56.897Z,97706.22
2022-12-11T08:31:24.981Z,97712.69
2022-12-11T08:33:52.535Z,97707.47
2022-12-11T08:36:23.000Z,97714.97
2022-12-11T08:38:50.730Z,97710.53
2022-12-11T08:41:24.463Z,97716.81
2022-12-11T08:43:54.949Z,97705.91
2022-12-11T08:46:26.065Z,97721.44
2022-12-11T08:48:54.544Z,97719.22
2022-12-11T08:51:26.002Z,97714.03
2022-12-11T08:53:56.996Z,97715.78
2022-12-11T08:56:24.890Z,97720.97
2022-12-11T08:58:53.035Z,97724.56
2022-12-11T09:01:24.217Z,97726.13
2022-12-11T09:03:52.918Z,97723.97
2022-12-11T09:06:23.230Z,97723.25
2022-12-11T09:08:53.319Z,97717.97
2022-12-11T09:11:24.662Z,97711.66
2022-12-11T09:13:52.388Z,97714.47
2022-12-11T09:16:24.119Z,97713.81
2022-12-11T09:18:54.274Z,97715.06
2022-12-11T09:21:24.701Z,97710.28
2022-12-11T09:23:58.774Z,97708.84
2022-12-11T09:26:27.640Z,97705.69
2022-12-11T09:28:55.005Z,97704.31
2022-12-11T09:31:29.055Z,97701.91
2022-12-11T09:34:00.140Z,97713.03
2022-12-11T09:36:27.752Z,97712.63
2022-12-11T09:38:54.743Z,97708.22
2022-12-11T09:41:21.701Z,97714.50
2022-12-11T09:44:03.611Z,97710.31
2022-12-11T09:46:34.319Z,97700.03
2022-12-11T09:49:04.228Z,97705.78
2022-12-11T09:52:14.630Z,97700.91
2022-12-11T09:54:51.235Z,97694.88
2022-12-11T09:58:14.384Z,97693.25
2022-12-11T10:01:05.796Z,97692.38
2022-12-11T10:03:57.328Z,97695.22
2022-12-11T10:07:05.544Z,97697.19
2022-12-11T10:09:47.907Z,97685.78
2022-12-11T10:12:51.531Z,97684.50
2022-12-11T10:15:43.468Z,97693.16
2022-12-11T10:18:17.170Z,97688.94
2022-12-11T10:20:45.344Z,97690.16
2022-12-11T10:23:28.308Z,97691.06
2022-12-11T10:26:01.808Z,97689.91
2022-12-11T10:28:29.380Z,97681.81
2022-12-11T10:31:08.186Z,97682.59
2022-12-11T10:33:50.205Z,97671.25
2022-12-11T10:36:29.576Z,97676.41
2022-12-11T10:38:56.829Z,97674.34
2022-12-11T10:41:43.316Z,97668.50
2022-12-11T10:44:26.467Z,97666.50
2022-12-11T10:47:11.861Z,97655.63
2022-12-11T10:49:54.081Z,97659.94
2022-12-11T10:52:35.837Z,97655.94
2022-12-11T10:55:08.875Z,97655.13
2022-12-11T10:57:39.211Z,97655.78
2022-12-11T11:00:25.605Z,97654.34
2022-12-11T11:02:52.698Z,97658.91
2022-12-11T11:05:35.778Z,97659.84
2022-12-11T11:08:10.846Z,97655.56
2022-12-11T11:10:37.889Z,97649.19
2022-12-11T11:13:05.269Z,97656.47
2022-12-11T11:15:32.393Z,97648.00
2022-12-11T11:18:13.199Z,97648.25
2022-12-11T11:20:47.475Z,97645.38
2022-12-11T11:23:17.172Z,97646.50
2022-12-11T11:25:59.974Z,97640.19
2022-12-11T11:28:36.385Z,97654.03
2022-12-11T11:31:15.555Z,97646.91
2022-12-11T11:34:04.001Z,97645.88
2022-12-11T11:36:35.309Z,97644.53
2022-12-11T11:39:26.617Z,97637.97
2022-12-11T11:42:15.566Z,97639.31
2022-12-11T11:45:02.347Z,97640.81
2022-12-11T11:47:42.132Z,97634.59
2022-12-11T11:50:22.491Z,97625.81
2022-12-11T11:53:12.177Z,97632.09
2022-12-11T11:56:03.757Z,97631.34
2022-12-11T11:58:45.601Z,97624.63
2022-12-11T12:01:18.378Z,97626.47
2022-12-11T12:03:48.911Z,97624.38
2022-12-11T12:07:03.828Z,97631.31
2022-12-11T12:09:49.576Z,97630.47
2022-12-11T12:12:39.886Z,97623.84
2022-12-11T12:16:22.881Z,97618.09
2022-12-11T12:19:16.634Z,97618.16
2022-12-11T12:21:51.347Z,97625.66
2022-12-11T12:24:52.419Z,97617.00
2022-12-11T12:27:53.682Z,97616.50
2022-12-11T12:30:23.290Z,97618.97
2022-12-11T12:33:25.870Z,97615.44
2022-12-11T12:36:28.401Z,97614.94
2022-12-11T12:39:42.642Z,97610.69
2022-12-11T12:42:15.461Z,97613.03
2022-12-11T12:45:13.210Z,97614.97
2022-12-11T12:47:43.044Z,97613.28
2022-12-11T12:50:19.400Z,97605.00
2022-12-11T12:52:48.535Z,97597.91
2022-12-11T12:55:28.767Z,97598.25
2022-12-11T12:58:08.320Z,97596.41
2022-12-11T13:00:41.769Z,97603.56
2022-12-11T13:03:30.289Z,97599.13
2022-12-11T13:06:03.216Z,97600.09
2022-12-11T13:08:47.707Z,97599.59
2022-12-11T13:11:18.474Z,97606.84
2022-12-11T13:14:07.459Z,97600.28
2022-12-11T13:16:44.290Z,97605.03
2022-12-11T13:19:42.378Z,97604.44
2022-12-11T13:22:12.843Z,97608.16
2022-12-11T13:24:53.345Z,97606.19
2022-12-11T13:27:41.736Z,97605.44
2022-12-11T13:30:24.653Z,97602.06
2022-12-11T13:33:08.286Z,97606.97
2022-12-11T13:35:35.889Z,97606.38
2022-12-11T13:38:19.330Z,97610.16
2022-12-11T13:40:55.858Z,97604.41
2022-12-11T13:43:29.825Z,97611.75
2022-12-11T13:46:01.436Z,97605.47
2022-12-11T13:48:40.178Z,97613.88
2022-12-11T13:51:07.488Z,97611.34
2022-12-11T13:53:34.494Z,97612.41
2022-12-11T13:56:07.956Z,97615.31
2022-12-11T13:58:59.978Z,97617.75
2022-12-11T14:01:32.783Z,97615.56
2022-12-11T14:04:10.788Z,97612.94
2022-12-11T14:06:39.826Z,97608.69
2022-12-11T14:09:08.597Z,97613.88
2022-12-11T14:11:40.524Z,97615.31
2022-12-11T14:14:19.086Z,97622.19
2022-12-11T14:16:52.184Z,97622.94
2022-12-11T14:19:21.812Z,97628.25
2022-12-11T14:22:00.608Z,97622.75
2022-12-11T14:24:29.140Z,97630.78
2022-12-11T14:26:56.411Z,97630.84
2022-12-11T14:29:33.663Z,97630.41
2022-12-11T14:32:06.787Z,97634.34
2022-12-11T14:34:45.670Z,97634.72
2022-12-11T14:37:16.122Z,97636.69
2022-12-11T14:40:07.935Z,97644.38
2022-12-11T14:42:59.971Z,97638.53
2022-12-11T14:45:41.038Z,97638.69
2022-12-11T14:48:18.339Z,97641.84
2022-12-11T14:50:50.901Z,97653.91
2022-12-11T14:53:22.628Z,97645.94
2022-12-11T14:55:50.786Z,97660.41
2022-12-11T14:58:29.156Z,97661.47
2022-12-11T15:01:20.267Z,97661.47
2022-12-11T15:03:48.018Z,97663.13
2022-12-11T15:06:29.192Z,97661.69
2022-12-11T15:08:56.597Z,97660.53
2022-12-11T15:11:30.399Z,97656.25
2022-12-11T15:14:01.090Z,97671.03
2022-12-11T15:16:33.356Z,97670.47
2022-12-11T15:19:02.119Z,97662.91
2022-12-11T15:21:35.696Z,97668.03
2022-12-11T15:24:05.518Z,97669.41
2022-12-11T15:26:47.955Z,97661.63
2022-12-11T15:29:39.341Z,97666.41
2022-12-11T15:32:09.173Z,97665.91
2022-12-11T15:34:48.657Z,97668.63
2022-12-11T15:37:31.944Z,97672.19
2022-12-11T15:40:01.551Z,97674.03
2022-12-11T15:42:41.813Z,97671.56
2022-12-11T15:45:17.868Z,97672.97
2022-12-11T15:47:45.882Z,97670.84
2022-12-11T15:50:17.249Z,97673.19
2022-12-11T15:52:44.544Z,97679.47
2022-12-11T15:55:14.136Z,97678.03
2022-12-11T15:57:49.712Z,97677.88
2022-12-11T16:00:24.032Z,97670.88
2022-12-11T16:02:52.105Z,97679.31
2022-12-11T16:05:19.388Z,97683.63
2022-12-11T16:07:46.531Z,97683.47
2022-12-11T16:10:17.638Z,97678.72
2022-12-11T16:12:45.239Z,97673.78
2022-12-11T16:15:19.917Z,97681.94
2022-12-11T16:17:49.985Z,97688.78
2022-12-11T16:20:17.863Z,97687.06
2022-12-11T16:22:44.872Z,97688.69
2022-12-11T16:25:12.054Z,97686.50
2022-12-11T16:27:39.341Z,97686.38
2022-12-11T16:30:07.042Z,97682.38
2022-12-11T16:32:34.133Z,97682.81
2022-12-11T16:35:01.171Z,97680.16
2022-12-11T16:37:28.352Z,97686.19
2022-12-11T16:39:55.459Z,97687.09
2022-12-11T16:42:22.488Z,97695.09
2022-12-11T16:44:49.531Z,97681.56
2022-12-11T16:47:16.558Z,97685.34
2022-12-11T16:49:43.573Z,97678.25
2022-12-11T16:52:10.760Z,97683.16
2022-12-11T16:54:37.852Z,97675.19
2022-12-11T16:57:05.209Z,97675.72
2022-12-11T16:59:36.904Z,97672.78
2022-12-11T17:02:05.174Z,97677.44
2022-12-11T17:04:32.640Z,97672.47
2022-12-11T17:06:59.647Z,97668.47
2022-12-11T17:09:26.755Z,97677.75
2022-12-11T17:11:53.880Z,97673.66
2022-12-11T17:14:21.004Z,97671.91
2022-12-11T17:16:48.236Z,97679.28
2022-12-11T17:19:16.652Z,97668.25
2022-12-11T17:21:47.082Z,97673.88
2022-12-11T17:24:18.435Z,97664.31
2022-12-11T17:26:45.489Z,97663.25
2022-12-11T17:29:13.403Z,97659.78
2022-12-11T17:31:40.790Z,97662.44
2022-12-11T17:34:07.783Z,97664.94
2022-12-11T17:36:35.133Z,97664.94
2022-12-11T17:39:03.788Z,97668.63
2022-12-11T17:41:30.872Z,97673.44
2022-12-11T17:43:57.864Z,97672.69
2022-12-11T17:46:24.906Z,97668.56
2022-12-11T17:48:51.998Z,97668.81
2022-12-11T17:51:24.589Z,97664.06
2022-12-11T17:53:53.151Z,97665.66
2022-12-11T17:56:20.289Z,97662.72
2022-12-11T17:58:47.361Z,97663.16
2022-12-11T18:01:14.601Z,97668.06
2022-12-11T18:03:42.071Z,97652.56
2022-12-11T18:06:13.704Z,97657.19
2022-12-11T18:08:41.951Z,97661.63
2022-12-11T18:11:21.613Z,97661.47
2022-12-11T18:13:49.922Z,97660.03
2022-12-11T18:16:30.812Z,97663.63
2022-12-11T18:18:58.099Z,97661.53
2022-12-11T18:21:33.015Z,97658.50
2022-12-11T18:24:01.583Z,97656.69
2022-12-11T18:26:29.117Z,97652.84
2022-12-11T18:28:56.216Z,97657.06
2022-12-11T18:31:23.472Z,97658.91
2022-12-11T18:33:51.334Z,97663.28
2022-12-11T18:36:20.665Z,97661.47
2022-12-11T18:38:48.194Z,97658.75
2022-12-11T18:41:17.180Z,97658.59
2022-12-11T18:43:44.165Z,97664.31
2022-12-11T18:46:15.507Z,97655.94
2022-12-11T18:48:43.439Z,97657.41
2022-12-11T18:51:17.853Z,97649.97
2022-12-11T18:53:45.524Z,97649.59
2022-12-11T18:56:16.698Z,97652.44
2022-12-11T18:58:44.338Z,97654.94
2022-12-11T19:01:25.112Z,97657.53
2022-12-11T19:04:00.652Z,97652.84
2022-12-11T19:06:31.998Z,97655.34
2022-12-11T19:08:59.820Z,97654.88
2022-12-11T19:11:30.182Z,97654.59
2022-12-11T19:13:57.926Z,97639.66
2022-12-11T19:16:33.638Z,97644.38
2022-12-11T19:19:09.894Z,97640.69
2022-12-11T19:21:38.451Z,97638.00
2022-12-11T19:24:09.135Z,97640.59
2022-12-11T19:26:36.984Z,97638.81
2022-12-11T19:29:04.715Z,97637.22
2022-12-11T19:31:33.219Z,97633.50
2022-12-11T19:34:01.179Z,97634.22
2022-12-11T19:36:30.700Z,97638.66
2022-12-11T19:39:01.455Z,97632.03
2022-12-11T19:41:31.014Z,97639.59
2022-12-11T19:43:59.237Z,97646.59
2022-12-11T19:46:26.972Z,97639.09
2022-12-11T19:48:56.635Z,97639.94
2022-12-11T19:51:29.042Z,97655.22
2022-12-11T19:53:57.344Z,97655.94
2022-12-11T19:56:25.661Z,97651.38
2022-12-11T19:58:52.686Z,97644.91
2022-12-11T20:01:25.062Z,97643.63
2022-12-11T20:03:54.411Z,97649.53
2022-12-11T20:06:22.320Z,97654.88
2022-12-11T20:08:49.960Z,97654.59
2022-12-11T20:11:19.071Z,97642.47
2022-12-11T20:13:49.975Z,97642.19
2022-12-11T20:16:28.894Z,97643.81
2022-12-11T20:19:08.323Z,97634.31
2022-12-11T20:21:35.381Z,97645.78
2022-12-11T20:24:02.337Z,97640.50
2022-12-11T20:26:31.041Z,97647.19
2022-12-11T20:28:58.243Z,97648.84
2022-12-11T20:31:26.394Z,97649.56
2022-12-11T20:33:56.071Z,97643.03
2022-12-11T20:36:25.153Z,97648.44
2022-12-11T20:38:53.013Z,97653.06
2022-12-11T20:41:23.647Z,97655.50
2022-12-11T20:43:53.301Z,97653.13
2022-12-11T20:46:24.848Z,97651.19
2022-12-11T20:48:52.694Z,97647.94
2022-12-11T20:51:25.693Z,97653.03
2022-12-11T20:53:58.477Z,97650.78
2022-12-11T20:56:29.551Z,97659.22
2022-12-11T20:58:57.812Z,97651.44
2022-12-11T21:01:28.249Z,97654.38
2022-12-11T21:03:55.348Z,97650.94
2022-12-11T21:06:31.733Z,97650.16
2022-12-11T21:09:09.724Z,97654.69
2022-12-11T21:11:37.114Z,97651.91
2022-12-11T21:14:04.570Z,97652.72
2022-12-11T21:16:31.984Z,97655.13
2022-12-11T21:18:59.360Z,97657.03
2022-12-11T21:21:26.800Z,97655.41
2022-12-11T21:23:53.907Z,97652.09
2022-12-11T21:26:21.295Z,97651.38
2022-12-11T21:28:48.589Z,97657.03
2022-12-11T21:31:18.915Z,97645.69
2022-12-11T21:33:47.488Z,97648.59
2022-12-11T21:36:16.148Z,97649.13
2022-12-11T21:38:44.708Z,97649.41
2022-12-11T21:41:22.616Z,97652.44
2022-12-11T21:44:56.710Z,97653.81
2022-12-11T21:46:39.789Z,97650.59
2022-12-11T21:49:08.438Z,97649.63
2022-12-11T21:51:41.482Z,97659.31
2022-12-11T21:54:17.761Z,97657.56
2022-12-11T21:56:46.327Z,97655.22
2022-12-11T21:59:13.862Z,97668.78
2022-12-11T22:01:45.949Z,97657.00
2022-12-11T22:04:15.032Z,97662.09
2022-12-11T22:06:43.508Z,97670.66
2022-12-11T22:09:12.542Z,97673.09
2022-12-11T22:11:40.948Z,97670.66
2022-12-11T22:14:13.447Z,97673.75
2022-12-11T22:16:40.897Z,97675.94
2022-12-11T22:19:07.878Z,97677.31
2022-12-11T22:21:35.172Z,97678.63
2022-12-11T22:24:02.271Z,97680.97
2022-12-11T22:26:29.380Z,97682.78
2022-12-11T22:28:57.043Z,97679.50
2022-12-11T22:31:26.641Z,97677.72
2022-12-11T22:33:54.891Z,97675.91
2022-12-11T22:36:26.895Z,97678.44
2022-12-11T22:38:54.195Z,97674.91
2022-12-11T22:41:32.621Z,97681.03
2022-12-11T22:44:00.366Z,97685.53
2022-12-11T22:46:29.983Z,97687.13
2022-12-11T22:48:58.554Z,97683.66
2022-12-11T22:51:25.652Z,97689.63
2022-12-11T22:53:52.576Z,97700.41
2022-12-11T22:56:19.561Z,97694.75
2022-12-11T22:58:46.543Z,97698.66
2022-12-11T23:01:21.838Z,97704.00
2022-12-11T23:03:49.441Z,97699.34
2022-12-11T23:06:19.690Z,97701.81
2022-12-11T23:08:47.006Z,97705.66
2022-12-11T23:11:26.112Z,97710.16
2022-12-11T23:13:53.790Z,97699.25
2022-12-11T23:16:23.196Z,97702.34
2022-12-11T23:18:50.786Z,97697.25
2022-12-11T23:21:17.867Z,97705.78
2022-12-11T23:23:45.400Z,97701.78
2022-12-11T23:26:15.425Z,97696.78
2022-12-11T23:28:42.488Z,97700.50
2022-12-11T23:31:10.515Z,97701.72
2022-12-11T23:33:37.976Z,97710.34
2022-12-11T23:36:05.757Z,97703.47
2022-12-11T23:38:33.219Z,97705.28
2022-12-11T23:41:04.242Z,97712.38
2022-12-11T23:43:31.394Z,97716.19
2022-12-11T23:45:58.375Z,97709.00
2022-12-11T23:48:25.640Z,97705.75
2022-12-11T23:50:52.919Z,97704.00
2022-12-11T23:53:19.916Z,97706.84
2022-12-11T23:55:46.986Z,97705.50
2022-12-11T23:58:13.996Z,97708.16
